Bullish Engulfing

The Bullish Engulfing pattern is a two day bullish pattern that forms when a small black candlestick is followed by a large white candlestick that completely eclipses or "engulfs" the previous day's candlestick. This trend suggests the bulls have taken control of a security's price movement from the bears. The Bearish brother of this pattern is the Bearish Engulfing pattern

Technicals
Stock Name Quality Score Technical Score Stock Classification Text Default Exchange Current Price Rs Day Change % Week Change % 5Day SMA Rs 5Day EMA Rs 10Day SMA Rs Candlestick Strength [Bullish minus Bearish] Prev Close Rs Last End of Day
Valiant Organics Ltd. NA NA NA NSE 3497.1 6.7 -1.02 3404.58 3411.4 3485.83 1 3277.65 2020-10-23T10:01:00+00:00
Colgate-Palmolive (India) Ltd. 92 59 Expensive Performer NSE 1464.65 2.28 1.76 1452.23 1448.85 1446.45 2 1431.95 2020-10-23T10:01:00+00:00
Bannari Amman Sugars Ltd. 55 69 Turnaround Potential NSE 1306.85 0.48 0.03 1308.25 1306.85 1304.87 1 1300.6 2020-10-23T10:01:00+00:00
Eldeco Housing & Industries Ltd. 65 47 Mid-range Performer BSE 980 1.64 5.99 953.97 959.85 946.32 1 964.15 2020-10-23T10:01:00+00:00
Sharda Motor Industries Ltd. 26 56 Await Turnaround NSE 916.3 10.07 7.78 850.81 862.88 849.4 1 832.5 2020-10-23T10:01:00+00:00
Triton Valves Ltd. NA 55 NA BSE 750 4.01 -0.17 724.59 731.49 729.11 2 721.1 2020-10-23T10:01:00+00:00
Sandur Manganese & Iron Ores Ltd. 26 66 Momentum Trap BSE 714.65 6.19 2.81 679.91 686.56 675.99 1 673 2020-10-23T10:01:00+00:00
Just Dial Ltd. 58 65 Strong Performer, Getting Expensive NSE 584.05 4.21 20.09 563.05 554.34 500.11 1 560.45 2020-10-23T10:01:00+00:00
Grindwell Norton Ltd. 56 64 Expensive Star NSE 566.5 4.29 2.66 550.34 552.7 547.8 2 543.2 2020-10-23T10:01:00+00:00
Ruchi Soya Industries Ltd. 44 57 Mid-range Performer NSE 539.35 4.99 1.89 523.59 527.75 534.16 2 513.7 2020-10-23T10:01:00+00:00
Ramco Systems Ltd. 56 74 Expensive Star NSE 475.95 5 -7.19 479.68 476.98 491.65 2 453.3 2020-10-23T10:01:00+00:00
Panasonic Carbon India Co. Ltd. 74 50 Mid-range Performer BSE 365.8 1.29 0.79 362.97 364.63 368.19 1 361.15 2020-10-23T10:01:00+00:00
Mahindra Logistics Ltd. 46 65 Expensive Rocket NSE 357.05 6.47 7.5 337.1 341.75 335.92 1 335.35 2020-10-23T10:01:00+00:00
Century Textiles & Industries Ltd. 37 38 Expensive Performer NSE 323.45 1.35 0.58 320.43 320.99 319.63 1 319.15 2020-10-23T10:01:00+00:00
ZF Steering Gear (India) Ltd. 44 54 Expensive Performer BSE 319 2.24 5.07 312.73 314.02 311.95 1 312 2020-10-23T10:01:00+00:00
Sirca Paints India Ltd. NA 49 NA NSE 249.9 1.4 0.2 251.33 250.87 253.91 1 246.45 2020-10-23T10:01:00+00:00
Narmada Gelatines Ltd. 56 57 Mid-range Performer BSE 176.25 4.29 3.07 169.85 171.29 169.59 1 169 2020-10-23T10:01:00+00:00
Sree Rayalaseema Hi-Strength Hypo Ltd. 69 56 Strong Performer, Under Radar NSE 173.65 0.78 -0.86 173.85 173.94 175.56 1 172.3 2020-10-23T10:01:00+00:00
Dishman Carbogen Amcis Ltd. 55 66 Turnaround Potential NSE 168 7.66 7.21 159.86 161.13 158.87 1 156.05 2020-10-23T10:01:00+00:00
Permanent Magnets Ltd. 55 76 Turnaround Potential BSE 165.6 3.89 12.27 160.35 159.97 154.26 1 159.4 2020-10-23T10:01:00+00:00
Pix Transmissions Ltd. 76 67 Strong Performer BSE 147.9 4.45 8.47 141.01 142.38 139.14 1 141.6 2020-10-23T10:01:00+00:00
Creative Peripherals and Distribution Ltd. NA 72 NA NSE 142.15 1.14 14.73 136.71 136.83 129.43 1 140.55 2020-10-23T10:01:00+00:00
Swan Energy Ltd. 40 66 Expensive Rocket NSE 139.75 2.8 1.56 138.91 138.22 137.39 1 135.95 2020-10-23T10:01:00+00:00
Rossell India Ltd. 67 61 Strong Performer, Getting Expensive NSE 132.1 4.97 4.39 129.35 129.63 129.42 2 125.85 2020-10-23T10:01:00+00:00
Black Rose Industries Ltd. 60 57 Expensive Performer BSE 127.75 4.76 4.03 122.39 123.6 122.36 1 121.95 2020-10-23T10:01:00+00:00
SBI BSE 100 ETF NA 63 NA BSE 125 3.48 5.83 122.57 122.64 121.4 1 120.8 2020-10-23T10:01:00+00:00
Talbros Automotive Components Ltd. 55 67 Turnaround Potential NSE 117.8 4.57 5.04 113.32 113.61 110.75 1 112.65 2020-10-23T10:01:00+00:00
Elgi Equipments Ltd. 38 53 Expensive Performer NSE 110.8 0.73 0.59 110.88 110.75 110.41 1 110 2020-10-23T10:01:00+00:00
India Gelatine & Chemicals Ltd. 46 53 Mid-range Performer BSE 99 2.64 1.54 98.15 98.02 98.45 1 96.45 2020-10-23T10:01:00+00:00
Sakar Healthcare Ltd. 19 62 Momentum Trap NSE 82.45 4.17 9.57 78.88 80.12 80.32 1 79.15 2020-10-23T10:01:00+00:00
Spencer's Retail Ltd. 28 42 Momentum Trap NSE 77.8 2.71 6.58 76.05 76.23 75.45 1 75.75 2020-10-23T10:01:00+00:00
Ultracab (India) Ltd. 56 68 Expensive Star BSE 76.85 1.32 7.41 74.93 75.05 73.17 1 75.85 2020-10-23T10:01:00+00:00
63 Moons Technologies Ltd. 24 42 Momentum Trap NSE 73.75 1.1 1.94 73.51 73.45 73.55 1 72.95 2020-10-23T10:01:00+00:00
Nettlinx Ltd. NA 75 NA BSE 63.5 3.34 2.67 62.82 62.53 61.63 1 61.45 2020-10-23T10:01:00+00:00
Bharat Gears Ltd. NA 55 NA NSE 50.95 4.51 10.88 49.69 49.45 48.47 1 48.75 2020-10-23T10:01:00+00:00
Genesys International Corporation Ltd. 42 52 Expensive Performer NSE 50.4 5 6.44 48.55 48.87 47.77 2 48 2020-10-23T10:01:00+00:00
Shiva Global Agro Industries Ltd. NA 69 NA BSE 45.1 2.27 6.24 43.71 44.17 43.55 1 44.1 2020-10-23T10:01:00+00:00
Gravita India Ltd. 69 47 Strong Performer, Under Radar NSE 45.1 3.44 0.78 44.27 44.57 45.12 1 43.6 2020-10-23T10:01:00+00:00
Kriti Nutrients Ltd. 49 73 Turnaround Potential BSE 38.5 2.12 5.91 37.8 37.81 37.5 2 37.7 2020-10-23T10:01:00+00:00
RDB Rasayans Ltd. 51 38 Mid-range Performer BSE 36.75 2.51 3.81 36.15 36.24 36.18 1 35.85 2020-10-23T10:01:00+00:00
Deccan Health Care Ltd. NA 34 NA BSE 35.25 0.71 -2.08 35.49 35.52 36.6 1 35 2020-10-23T10:01:00+00:00
T T Ltd. 51 55 Mid-range Performer NSE 35.05 1.74 6.05 34.76 34.64 34.26 1 34.45 2020-10-23T10:01:00+00:00
Cambridge Technology Enterprises Ltd. 37 75 Turnaround Potential NSE 32.7 4.98 -5.35 33.46 32.47 31.43 2 31.15 2020-10-23T10:01:00+00:00
GPT Infraprojects Ltd. 63 59 Strong Performer, Under Radar NSE 29.55 3.32 7.65 29.06 28.79 27.77 1 28.6 2020-10-23T10:01:00+00:00
IRIS Business Services Ltd. NA 62 NA BSE 29 3.2 13.06 27.77 28.1 28.27 2 28.1 2020-10-22T10:01:00+00:00
Genus Power Infrastructures Ltd. 79 66 Strong Performer, Getting Expensive NSE 28.35 2.72 -0.35 28.22 28.21 28.45 1 27.6 2020-10-23T10:01:00+00:00
Sharp India Ltd. NA 61 NA BSE 24.4 3.39 -4.69 24.52 24.33 24.63 1 23.6 2020-10-23T10:01:00+00:00
Nippon India ETF Long Term Gilt NA 63 NA NSE 22.23 0.18 0.36 22.18 22.19 22.16 1 22.19 2020-10-23T10:01:00+00:00
Usha Martin Ltd. 78 50 Strong Performer, Under Radar NSE 22.2 3.5 3.5 21.72 21.81 21.74 1 21.45 2020-10-23T10:01:00+00:00
Kinetic Engineering Ltd. NA 42 NA BSE 20.15 3.6 8.92 19.09 19.39 18.91 2 19.45 2020-10-23T10:01:00+00:00
Bedmutha Industries Ltd. NA 64 NA NSE 18.95 1.34 -0.79 18.61 18.72 18.69 2 18.7 2020-10-23T10:01:00+00:00
Rishi Techtex Ltd. NA 54 NA BSE 16.39 8.47 -3.02 15.8 15.88 15.72 1 15.11 2020-10-23T10:01:00+00:00
Laffans Petrochemicals Ltd. NA 55 NA BSE 15.4 2.74 10.08 14.48 14.65 14 2 14.99 2020-10-22T10:01:00+00:00
KJMC Corporate Advisors (India) Ltd. NA 28 NA BSE 14.59 4.96 21.18 13.29 13.42 11.96 2 13.9 2020-10-23T10:01:00+00:00
Sakthi Finance Ltd. 53 54 Mid-range Performer BSE 13.92 0.87 2.65 13.72 13.79 13.87 2 13.8 2020-10-23T10:01:00+00:00
Prismx Global Ventures Ltd. NA 50 NA BSE 13.2 1.93 7.4 12.85 12.84 12.35 2 12.95 2020-10-23T10:01:00+00:00
Anik Industries Ltd. NA 56 NA NSE 12.15 1.67 6.58 12.16 12.06 11.83 1 11.95 2020-10-23T10:01:00+00:00
Rathi Bars Ltd. NA 59 NA BSE 11 3.29 0.09 10.7 10.75 10.71 1 10.65 2020-10-23T10:01:00+00:00
Aarvee Denims and Exports Ltd. NA 53 NA NSE 10.7 1.9 2.88 10.66 10.68 10.68 1 10.5 2020-10-23T10:01:00+00:00
Morarjee Textiles Ltd. NA 42 NA NSE 9.2 5.14 -1.08 9.03 9.09 9.21 1 8.75 2020-10-23T10:01:00+00:00
MIRC Electronics Ltd. 23 59 Momentum Trap NSE 8.45 3.05 6.96 8.37 8.29 8.03 1 8.2 2020-10-23T10:01:00+00:00
Marg Ltd. NA 41 NA BSE 6.68 2.93 4.05 6.35 6.47 6.49 1 6.49 2020-10-23T10:01:00+00:00
7NR Retail Ltd. NA 24 NA BSE 6.41 3.39 0.31 6.45 6.4 6.42 1 6.2 2020-10-23T10:01:00+00:00
Tijaria Polypipes Ltd. NA 34 NA NSE 5.75 6.48 13.86 5.49 5.52 5.5 2 5.4 2020-10-23T10:01:00+00:00
Celebrity Fashions Ltd. NA 36 NA NSE 4.7 4.44 1.08 4.59 4.63 4.69 1 4.5 2020-10-23T10:01:00+00:00
Patspin India Ltd. NA 58 NA NSE 4.35 4.82 7.41 4.19 4.22 4.19 2 4.15 2020-10-23T10:01:00+00:00
ATV Projects India Ltd. NA 58 NA BSE 4.19 3.97 12.33 4.01 4 3.77 1 4.03 2020-10-23T10:01:00+00:00
Parsvnath Developers Ltd. 39 54 Mid-range Performer NSE 2.55 4.08 4.08 2.48 2.48 2.42 2 2.45 2020-10-23T10:01:00+00:00
JCT Ltd. 28 39 Await Turnaround BSE 0.83 3.75 5.06 0.8 0.81 0.8 1 0.8 2020-10-23T10:01:00+00:00
Viaan Industries Ltd. NA 38 NA BSE 0.78 6.85 -2.5 0.76 0.76 0.76 1 0.73 2020-10-23T10:01:00+00:00